sensor_id;sensor_type;location;lat;lon;timestamp;temperature;humidity
55492;DHT22;41354;52.990;6.878;2022-08-19T00:01:30;14.90;99.90
55492;DHT22;41354;52.990;6.878;2022-08-19T00:04:00;14.90;99.90
55492;DHT22;41354;52.990;6.878;2022-08-19T00:06:28;14.90;99.90
55492;DHT22;41354;52.990;6.878;2022-08-19T00:08:54;14.80;99.90
55492;DHT22;41354;52.990;6.878;2022-08-19T00:11:21;14.80;99.90
55492;DHT22;41354;52.990;6.878;2022-08-19T00:13:46;14.80;99.90
55492;DHT22;41354;52.990;6.878;2022-08-19T00:17:43;14.70;99.90
55492;DHT22;41354;52.990;6.878;2022-08-19T00:20:12;14.70;99.90
55492;DHT22;41354;52.990;6.878;2022-08-19T00:22:38;14.70;99.90
55492;DHT22;41354;52.990;6.878;2022-08-19T00:25:06;14.60;99.90
55492;DHT22;41354;52.990;6.878;2022-08-19T00:27:36;14.70;99.90
55492;DHT22;41354;52.990;6.878;2022-08-19T00:30:03;14.60;99.90
55492;DHT22;41354;52.990;6.878;2022-08-19T00:32:29;14.60;99.90
55492;DHT22;41354;52.990;6.878;2022-08-19T00:34:55;14.70;99.90
55492;DHT22;41354;52.990;6.878;2022-08-19T00:37:22;14.60;99.90
55492;DHT22;41354;52.990;6.878;2022-08-19T00:39:49;14.60;99.90
55492;DHT22;41354;52.990;6.878;2022-08-19T00:42:16;14.60;99.90
55492;DHT22;41354;52.990;6.878;2022-08-19T00:44:42;14.60;99.90
55492;DHT22;41354;52.990;6.878;2022-08-19T00:47:08;14.60;99.90
55492;DHT22;41354;52.990;6.878;2022-08-19T00:49:47;14.60;99.90
55492;DHT22;41354;52.990;6.878;2022-08-19T00:52:32;14.60;99.90
55492;DHT22;41354;52.990;6.878;2022-08-19T00:54:59;14.60;99.90
55492;DHT22;41354;52.990;6.878;2022-08-19T00:57:35;14.60;99.90
55492;DHT22;41354;52.990;6.878;2022-08-19T01:00:06;14.50;99.90
55492;DHT22;41354;52.990;6.878;2022-08-19T01:02:32;14.50;99.90
55492;DHT22;41354;52.990;6.878;2022-08-19T01:05:00;14.30;99.90
55492;DHT22;41354;52.990;6.878;2022-08-19T01:07:26;14.30;99.90
55492;DHT22;41354;52.990;6.878;2022-08-19T01:09:52;14.30;99.90
55492;DHT22;41354;52.990;6.878;2022-08-19T01:12:19;14.20;99.90
55492;DHT22;41354;52.990;6.878;2022-08-19T01:14:45;14.10;99.90
55492;DHT22;41354;52.990;6.878;2022-08-19T01:17:12;14.10;99.90
55492;DHT22;41354;52.990;6.878;2022-08-19T01:19:40;14.10;99.90
55492;DHT22;41354;52.990;6.878;2022-08-19T01:22:27;14.10;99.90
55492;DHT22;41354;52.990;6.878;2022-08-19T01:24:54;14.10;99.90
55492;DHT22;41354;52.990;6.878;2022-08-19T01:27:20;14.10;99.90
55492;DHT22;41354;52.990;6.878;2022-08-19T01:29:46;14.10;99.90
55492;DHT22;41354;52.990;6.878;2022-08-19T01:32:14;14.10;99.90
55492;DHT22;41354;52.990;6.878;2022-08-19T01:34:41;14.10;99.90
55492;DHT22;41354;52.990;6.878;2022-08-19T01:37:11;14.10;99.90
55492;DHT22;41354;52.990;6.878;2022-08-19T01:39:38;14.10;99.90
55492;DHT22;41354;52.990;6.878;2022-08-19T01:42:05;14.00;99.90
55492;DHT22;41354;52.990;6.878;2022-08-19T01:44:32;14.10;99.90
55492;DHT22;41354;52.990;6.878;2022-08-19T01:46:58;14.00;99.90
55492;DHT22;41354;52.990;6.878;2022-08-19T01:49:25;14.00;99.90
55492;DHT22;41354;52.990;6.878;2022-08-19T01:51:52;14.00;99.90
55492;DHT22;41354;52.990;6.878;2022-08-19T01:54:20;13.90;99.90
55492;DHT22;41354;52.990;6.878;2022-08-19T01:56:46;13.90;99.90
55492;DHT22;41354;52.990;6.878;2022-08-19T01:59:16;13.90;99.90
55492;DHT22;41354;52.990;6.878;2022-08-19T02:01:41;13.90;99.90
55492;DHT22;41354;52.990;6.878;2022-08-19T02:04:08;13.90;99.90
55492;DHT22;41354;52.990;6.878;2022-08-19T02:06:34;13.80;99.90
55492;DHT22;41354;52.990;6.878;2022-08-19T02:09:00;13.80;99.90
55492;DHT22;41354;52.990;6.878;2022-08-19T02:11:29;13.80;99.90
55492;DHT22;41354;52.990;6.878;2022-08-19T02:13:57;13.70;99.90
55492;DHT22;41354;52.990;6.878;2022-08-19T02:16:23;13.70;99.90
55492;DHT22;41354;52.990;6.878;2022-08-19T02:18:49;13.60;99.90
55492;DHT22;41354;52.990;6.878;2022-08-19T02:21:20;13.70;99.90
55492;DHT22;41354;52.990;6.878;2022-08-19T02:23:46;13.60;99.90
55492;DHT22;41354;52.990;6.878;2022-08-19T02:26:12;13.60;99.90
55492;DHT22;41354;52.990;6.878;2022-08-19T02:28:39;13.60;99.90
55492;DHT22;41354;52.990;6.878;2022-08-19T02:31:13;13.60;99.90
55492;DHT22;41354;52.990;6.878;2022-08-19T02:33:40;13.60;99.90
55492;DHT22;41354;52.990;6.878;2022-08-19T02:36:06;13.60;99.90
55492;DHT22;41354;52.990;6.878;2022-08-19T02:38:33;13.60;99.90
55492;DHT22;41354;52.990;6.878;2022-08-19T02:41:04;13.60;99.90
55492;DHT22;41354;52.990;6.878;2022-08-19T02:43:32;13.60;99.90
55492;DHT22;41354;52.990;6.878;2022-08-19T02:46:02;13.50;99.90
55492;DHT22;41354;52.990;6.878;2022-08-19T02:48:28;13.50;99.90
55492;DHT22;41354;52.990;6.878;2022-08-19T02:50:53;13.50;99.90
55492;DHT22;41354;52.990;6.878;2022-08-19T02:53:23;13.40;99.90
55492;DHT22;41354;52.990;6.878;2022-08-19T02:55:50;13.40;99.90
55492;DHT22;41354;52.990;6.878;2022-08-19T02:58:16;13.30;99.90
55492;DHT22;41354;52.990;6.878;2022-08-19T03:00:53;13.30;99.90
55492;DHT22;41354;52.990;6.878;2022-08-19T03:03:19;13.20;99.90
55492;DHT22;41354;52.990;6.878;2022-08-19T03:05:45;13.20;99.90
55492;DHT22;41354;52.990;6.878;2022-08-19T03:08:13;13.20;99.90
55492;DHT22;41354;52.990;6.878;2022-08-19T03:10:44;13.20;99.90
55492;DHT22;41354;52.990;6.878;2022-08-19T03:13:16;13.20;99.90
55492;DHT22;41354;52.990;6.878;2022-08-19T03:15:43;13.20;99.90
55492;DHT22;41354;52.990;6.878;2022-08-19T03:18:10;13.20;99.90
55492;DHT22;41354;52.990;6.878;2022-08-19T03:20:44;13.10;99.90
55492;DHT22;41354;52.990;6.878;2022-08-19T03:23:11;13.10;99.90
55492;DHT22;41354;52.990;6.878;2022-08-19T03:25:42;13.00;99.90
55492;DHT22;41354;52.990;6.878;2022-08-19T03:28:12;13.00;99.90
55492;DHT22;41354;52.990;6.878;2022-08-19T03:30:39;12.90;99.90
55492;DHT22;41354;52.990;6.878;2022-08-19T03:33:09;12.90;99.90
55492;DHT22;41354;52.990;6.878;2022-08-19T03:35:35;12.90;99.90
55492;DHT22;41354;52.990;6.878;2022-08-19T03:38:05;12.90;99.90
55492;DHT22;41354;52.990;6.878;2022-08-19T03:40:32;12.80;99.90
55492;DHT22;41354;52.990;6.878;2022-08-19T03:43:00;12.80;99.90
55492;DHT22;41354;52.990;6.878;2022-08-19T03:45:26;12.80;99.90
55492;DHT22;41354;52.990;6.878;2022-08-19T03:47:53;12.80;99.90
55492;DHT22;41354;52.990;6.878;2022-08-19T03:50:18;12.80;99.90
55492;DHT22;41354;52.990;6.878;2022-08-19T03:52:49;12.80;99.90
55492;DHT22;41354;52.990;6.878;2022-08-19T03:55:15;12.80;99.90
55492;DHT22;41354;52.990;6.878;2022-08-19T03:57:41;12.80;99.90
55492;DHT22;41354;52.990;6.878;2022-08-19T04:00:07;12.80;99.90
55492;DHT22;41354;52.990;6.878;2022-08-19T04:02:33;12.80;99.90
55492;DHT22;41354;52.990;6.878;2022-08-19T04:04:58;12.80;99.90
55492;DHT22;41354;52.990;6.878;2022-08-19T04:07:24;12.80;99.90
55492;DHT22;41354;52.990;6.878;2022-08-19T04:09:50;12.80;99.90
55492;DHT22;41354;52.990;6.878;2022-08-19T04:12:17;12.90;99.90
55492;DHT22;41354;52.990;6.878;2022-08-19T04:14:45;12.90;99.90
55492;DHT22;41354;52.990;6.878;2022-08-19T04:17:11;12.80;99.90
55492;DHT22;41354;52.990;6.878;2022-08-19T04:19:38;12.70;99.90
55492;DHT22;41354;52.990;6.878;2022-08-19T04:22:04;12.70;99.90
55492;DHT22;41354;52.990;6.878;2022-08-19T04:24:30;12.80;99.90
55492;DHT22;41354;52.990;6.878;2022-08-19T04:26:56;12.80;99.90
55492;DHT22;41354;52.990;6.878;2022-08-19T04:29:23;12.80;99.90
55492;DHT22;41354;52.990;6.878;2022-08-19T04:31:51;12.80;99.90
55492;DHT22;41354;52.990;6.878;2022-08-19T04:34:20;12.80;99.90
55492;DHT22;41354;52.990;6.878;2022-08-19T04:36:48;12.80;99.90
55492;DHT22;41354;52.990;6.878;2022-08-19T04:39:19;12.70;99.90
55492;DHT22;41354;52.990;6.878;2022-08-19T04:41:46;12.70;99.90
55492;DHT22;41354;52.990;6.878;2022-08-19T04:44:32;12.60;99.90
55492;DHT22;41354;52.990;6.878;2022-08-19T04:46:57;12.70;99.90
55492;DHT22;41354;52.990;6.878;2022-08-19T04:49:23;12.60;99.90
55492;DHT22;41354;52.990;6.878;2022-08-19T04:51:51;12.70;99.90
55492;DHT22;41354;52.990;6.878;2022-08-19T04:54:19;12.90;99.90
55492;DHT22;41354;52.990;6.878;2022-08-19T04:56:51;13.10;99.90
55492;DHT22;41354;52.990;6.878;2022-08-19T04:59:17;13.40;99.90
55492;DHT22;41354;52.990;6.878;2022-08-19T05:01:44;13.60;99.90
55492;DHT22;41354;52.990;6.878;2022-08-19T05:04:16;13.70;99.90
55492;DHT22;41354;52.990;6.878;2022-08-19T05:06:42;13.70;99.90
55492;DHT22;41354;52.990;6.878;2022-08-19T05:09:08;13.80;99.90
55492;DHT22;41354;52.990;6.878;2022-08-19T05:11:36;14.00;99.90
55492;DHT22;41354;52.990;6.878;2022-08-19T05:14:08;14.00;99.90
55492;DHT22;41354;52.990;6.878;2022-08-19T05:16:34;14.10;99.90
55492;DHT22;41354;52.990;6.878;2022-08-19T05:18:59;14.20;99.90
55492;DHT22;41354;52.990;6.878;2022-08-19T05:21:44;14.30;99.90
55492;DHT22;41354;52.990;6.878;2022-08-19T05:24:29;14.40;99.90
55492;DHT22;41354;52.990;6.878;2022-08-19T05:26:55;14.50;99.90
55492;DHT22;41354;52.990;6.878;2022-08-19T05:29:26;14.60;99.90
55492;DHT22;41354;52.990;6.878;2022-08-19T05:31:53;14.70;99.90
55492;DHT22;41354;52.990;6.878;2022-08-19T05:34:21;14.70;99.90
55492;DHT22;41354;52.990;6.878;2022-08-19T05:36:48;14.80;99.90
55492;DHT22;41354;52.990;6.878;2022-08-19T05:39:18;14.80;99.90
55492;DHT22;41354;52.990;6.878;2022-08-19T05:41:51;14.80;99.90
55492;DHT22;41354;52.990;6.878;2022-08-19T05:44:18;14.90;99.90
55492;DHT22;41354;52.990;6.878;2022-08-19T05:46:46;15.00;99.90
55492;DHT22;41354;52.990;6.878;2022-08-19T05:49:19;15.10;99.90
55492;DHT22;41354;52.990;6.878;2022-08-19T05:51:44;15.10;99.90
55492;DHT22;41354;52.990;6.878;2022-08-19T05:54:11;15.20;99.90
55492;DHT22;41354;52.990;6.878;2022-08-19T05:56:42;15.30;99.90
55492;DHT22;41354;52.990;6.878;2022-08-19T05:59:09;15.50;99.90
55492;DHT22;41354;52.990;6.878;2022-08-19T06:01:42;15.50;99.90
55492;DHT22;41354;52.990;6.878;2022-08-19T06:04:08;15.70;99.90
55492;DHT22;41354;52.990;6.878;2022-08-19T06:06:35;15.80;99.90
55492;DHT22;41354;52.990;6.878;2022-08-19T06:09:03;15.90;99.90
55492;DHT22;41354;52.990;6.878;2022-08-19T06:11:38;16.00;99.90
55492;DHT22;41354;52.990;6.878;2022-08-19T06:14:13;16.20;99.90
55492;DHT22;41354;52.990;6.878;2022-08-19T06:16:40;16.30;99.90
55492;DHT22;41354;52.990;6.878;2022-08-19T06:19:11;16.40;99.90
55492;DHT22;41354;52.990;6.878;2022-08-19T06:21:38;16.50;99.90
55492;DHT22;41354;52.990;6.878;2022-08-19T06:24:10;16.60;99.90
55492;DHT22;41354;52.990;6.878;2022-08-19T06:26:38;16.80;99.90
55492;DHT22;41354;52.990;6.878;2022-08-19T06:29:05;16.90;99.90
55492;DHT22;41354;52.990;6.878;2022-08-19T06:31:32;17.00;99.90
55492;DHT22;41354;52.990;6.878;2022-08-19T06:34:00;17.10;99.90
55492;DHT22;41354;52.990;6.878;2022-08-19T06:36:32;17.20;99.90
55492;DHT22;41354;52.990;6.878;2022-08-19T06:39:01;17.20;99.90
55492;DHT22;41354;52.990;6.878;2022-08-19T06:41:28;17.40;99.90
55492;DHT22;41354;52.990;6.878;2022-08-19T06:43:54;17.50;99.90
55492;DHT22;41354;52.990;6.878;2022-08-19T06:46:20;17.60;99.90
55492;DHT22;41354;52.990;6.878;2022-08-19T06:48:47;17.70;99.90
55492;DHT22;41354;52.990;6.878;2022-08-19T06:51:15;17.70;99.90
55492;DHT22;41354;52.990;6.878;2022-08-19T06:53:41;17.80;99.90
55492;DHT22;41354;52.990;6.878;2022-08-19T06:56:15;17.90;99.90
55492;DHT22;41354;52.990;6.878;2022-08-19T06:58:41;18.10;99.90
55492;DHT22;41354;52.990;6.878;2022-08-19T07:01:16;18.10;99.90
55492;DHT22;41354;52.990;6.878;2022-08-19T07:03:42;18.20;99.90
55492;DHT22;41354;52.990;6.878;2022-08-19T07:06:14;18.30;99.90
55492;DHT22;41354;52.990;6.878;2022-08-19T07:08:41;18.40;99.90
55492;DHT22;41354;52.990;6.878;2022-08-19T07:11:08;18.70;99.90
55492;DHT22;41354;52.990;6.878;2022-08-19T07:13:35;19.00;99.90
55492;DHT22;41354;52.990;6.878;2022-08-19T07:16:10;19.30;99.90
55492;DHT22;41354;52.990;6.878;2022-08-19T07:18:37;19.60;99.90
55492;DHT22;41354;52.990;6.878;2022-08-19T07:21:11;19.80;99.90
55492;DHT22;41354;52.990;6.878;2022-08-19T07:23:37;19.90;99.90
55492;DHT22;41354;52.990;6.878;2022-08-19T07:26:28;20.00;99.90
55492;DHT22;41354;52.990;6.878;2022-08-19T07:28:55;20.20;99.90
55492;DHT22;41354;52.990;6.878;2022-08-19T07:31:22;20.60;99.90
55492;DHT22;41354;52.990;6.878;2022-08-19T07:33:50;20.80;99.90
55492;DHT22;41354;52.990;6.878;2022-08-19T07:36:20;21.00;99.90
55492;DHT22;41354;52.990;6.878;2022-08-19T07:38:48;21.20;99.90
55492;DHT22;41354;52.990;6.878;2022-08-19T07:41:17;21.50;99.90
55492;DHT22;41354;52.990;6.878;2022-08-19T07:43:44;21.80;99.90
55492;DHT22;41354;52.990;6.878;2022-08-19T07:46:11;22.00;99.90
55492;DHT22;41354;52.990;6.878;2022-08-19T07:48:39;22.10;99.90
55492;DHT22;41354;52.990;6.878;2022-08-19T07:51:06;22.20;99.90
55492;DHT22;41354;52.990;6.878;2022-08-19T07:53:33;22.30;99.90
55492;DHT22;41354;52.990;6.878;2022-08-19T07:55:59;22.40;99.90
55492;DHT22;41354;52.990;6.878;2022-08-19T07:58:29;22.50;99.90
55492;DHT22;41354;52.990;6.878;2022-08-19T08:00:55;22.70;99.90
55492;DHT22;41354;52.990;6.878;2022-08-19T08:03:21;23.00;99.90
55492;DHT22;41354;52.990;6.878;2022-08-19T08:06:07;23.30;99.90
55492;DHT22;41354;52.990;6.878;2022-08-19T08:08:56;23.60;99.90
55492;DHT22;41354;52.990;6.878;2022-08-19T08:11:38;23.80;99.90
55492;DHT22;41354;52.990;6.878;2022-08-19T08:14:04;24.00;99.90
55492;DHT22;41354;52.990;6.878;2022-08-19T08:16:37;24.10;99.90
55492;DHT22;41354;52.990;6.878;2022-08-19T08:19:04;24.20;99.90
55492;DHT22;41354;52.990;6.878;2022-08-19T08:21:31;24.20;99.90
55492;DHT22;41354;52.990;6.878;2022-08-19T08:23:57;24.30;99.90
55492;DHT22;41354;52.990;6.878;2022-08-19T08:26:24;24.40;99.90
55492;DHT22;41354;52.990;6.878;2022-08-19T08:28:51;24.50;99.90
55492;DHT22;41354;52.990;6.878;2022-08-19T08:31:17;24.50;99.90
55492;DHT22;41354;52.990;6.878;2022-08-19T08:33:44;24.70;99.90
55492;DHT22;41354;52.990;6.878;2022-08-19T08:36:10;24.80;99.90
55492;DHT22;41354;52.990;6.878;2022-08-19T08:38:37;24.90;99.90
55492;DHT22;41354;52.990;6.878;2022-08-19T08:43:49;25.00;99.90
55492;DHT22;41354;52.990;6.878;2022-08-19T08:46:44;25.20;99.90
55492;DHT22;41354;52.990;6.878;2022-08-19T08:49:18;25.40;99.90
55492;DHT22;41354;52.990;6.878;2022-08-19T08:51:54;25.40;99.90
55492;DHT22;41354;52.990;6.878;2022-08-19T08:54:24;25.60;99.90
55492;DHT22;41354;52.990;6.878;2022-08-19T08:56:53;25.90;99.90
55492;DHT22;41354;52.990;6.878;2022-08-19T08:59:28;26.00;99.90
55492;DHT22;41354;52.990;6.878;2022-08-19T09:01:56;26.20;99.90
55492;DHT22;41354;52.990;6.878;2022-08-19T09:04:21;26.30;99.90
55492;DHT22;41354;52.990;6.878;2022-08-19T09:06:55;26.40;99.90
55492;DHT22;41354;52.990;6.878;2022-08-19T09:09:46;26.40;99.90
55492;DHT22;41354;52.990;6.878;2022-08-19T09:12:33;26.50;99.90
55492;DHT22;41354;52.990;6.878;2022-08-19T09:15:04;26.40;99.90
55492;DHT22;41354;52.990;6.878;2022-08-19T09:17:31;26.50;99.90
55492;DHT22;41354;52.990;6.878;2022-08-19T09:22:37;26.90;99.90
55492;DHT22;41354;52.990;6.878;2022-08-19T09:25:05;26.80;99.90
55492;DHT22;41354;52.990;6.878;2022-08-19T09:27:32;27.00;99.90
55492;DHT22;41354;52.990;6.878;2022-08-19T09:29:58;26.90;99.90
55492;DHT22;41354;52.990;6.878;2022-08-19T09:32:24;27.00;99.90
55492;DHT22;41354;52.990;6.878;2022-08-19T09:34:50;27.30;99.90
55492;DHT22;41354;52.990;6.878;2022-08-19T09:37:18;27.30;99.90
55492;DHT22;41354;52.990;6.878;2022-08-19T09:39:43;27.30;99.90
55492;DHT22;41354;52.990;6.878;2022-08-19T09:42:09;27.20;99.90
55492;DHT22;41354;52.990;6.878;2022-08-19T09:44:40;27.40;99.90
55492;DHT22;41354;52.990;6.878;2022-08-19T09:47:07;27.50;99.90
55492;DHT22;41354;52.990;6.878;2022-08-19T09:49:33;27.70;99.90
55492;DHT22;41354;52.990;6.878;2022-08-19T09:51:59;27.60;99.90
55492;DHT22;41354;52.990;6.878;2022-08-19T09:54:25;27.30;99.90
55492;DHT22;41354;52.990;6.878;2022-08-19T09:56:55;27.20;99.90
55492;DHT22;41354;52.990;6.878;2022-08-19T09:59:21;27.30;99.90
55492;DHT22;41354;52.990;6.878;2022-08-19T10:01:47;27.40;99.60
55492;DHT22;41354;52.990;6.878;2022-08-19T10:04:12;27.60;99.90
55492;DHT22;41354;52.990;6.878;2022-08-19T10:06:39;27.70;98.20
55492;DHT22;41354;52.990;6.878;2022-08-19T10:09:07;27.80;98.80
55492;DHT22;41354;52.990;6.878;2022-08-19T10:11:34;27.80;99.90
55492;DHT22;41354;52.990;6.878;2022-08-19T10:14:04;28.00;99.60
55492;DHT22;41354;52.990;6.878;2022-08-19T10:16:32;28.00;96.70
55492;DHT22;41354;52.990;6.878;2022-08-19T10:18:58;28.10;98.90
55492;DHT22;41354;52.990;6.878;2022-08-19T10:21:30;28.20;98.60
55492;DHT22;41354;52.990;6.878;2022-08-19T10:23:58;28.50;96.90
55492;DHT22;41354;52.990;6.878;2022-08-19T10:26:38;28.60;94.20
55492;DHT22;41354;52.990;6.878;2022-08-19T10:29:07;28.50;93.70
55492;DHT22;41354;52.990;6.878;2022-08-19T10:31:34;28.40;92.90
55492;DHT22;41354;52.990;6.878;2022-08-19T10:34:00;28.60;94.80
55492;DHT22;41354;52.990;6.878;2022-08-19T10:36:32;28.90;92.60
55492;DHT22;41354;52.990;6.878;2022-08-19T10:39:00;29.10;89.80
55492;DHT22;41354;52.990;6.878;2022-08-19T10:41:33;29.50;90.70
55492;DHT22;41354;52.990;6.878;2022-08-19T10:44:02;29.60;82.00
55492;DHT22;41354;52.990;6.878;2022-08-19T10:46:29;29.50;83.20
55492;DHT22;41354;52.990;6.878;2022-08-19T10:48:58;29.60;77.90
55492;DHT22;41354;52.990;6.878;2022-08-19T10:51:24;29.70;79.60
55492;DHT22;41354;52.990;6.878;2022-08-19T10:54:09;29.60;82.60
55492;DHT22;41354;52.990;6.878;2022-08-19T10:56:35;29.60;76.60
55492;DHT22;41354;52.990;6.878;2022-08-19T10:59:25;29.30;82.20
55492;DHT22;41354;52.990;6.878;2022-08-19T11:01:54;29.30;83.80
55492;DHT22;41354;52.990;6.878;2022-08-19T11:04:20;29.00;86.10
55492;DHT22;41354;52.990;6.878;2022-08-19T11:06:48;29.30;85.40
55492;DHT22;41354;52.990;6.878;2022-08-19T11:09:19;29.60;82.50
55492;DHT22;41354;52.990;6.878;2022-08-19T11:11:45;29.10;79.90
55492;DHT22;41354;52.990;6.878;2022-08-19T11:14:15;28.50;84.20
55492;DHT22;41354;52.990;6.878;2022-08-19T11:16:41;28.20;88.40
55492;DHT22;41354;52.990;6.878;2022-08-19T11:19:08;28.30;85.20
55492;DHT22;41354;52.990;6.878;2022-08-19T11:21:37;28.40;84.80
55492;DHT22;41354;52.990;6.878;2022-08-19T11:24:07;28.80;88.40
55492;DHT22;41354;52.990;6.878;2022-08-19T11:26:34;29.50;85.20
55492;DHT22;41354;52.990;6.878;2022-08-19T11:29:00;29.70;85.80
55492;DHT22;41354;52.990;6.878;2022-08-19T11:31:30;29.50;86.30
55492;DHT22;41354;52.990;6.878;2022-08-19T11:34:03;29.10;84.50
55492;DHT22;41354;52.990;6.878;2022-08-19T11:36:30;28.90;84.10
55492;DHT22;41354;52.990;6.878;2022-08-19T11:38:58;28.80;91.40
55492;DHT22;41354;52.990;6.878;2022-08-19T11:41:24;28.80;90.10
55492;DHT22;41354;52.990;6.878;2022-08-19T11:43:51;28.80;86.30
55492;DHT22;41354;52.990;6.878;2022-08-19T11:46:19;28.70;86.50
55492;DHT22;41354;52.990;6.878;2022-08-19T11:48:45;28.60;92.30
55492;DHT22;41354;52.990;6.878;2022-08-19T11:51:16;28.50;92.40
55492;DHT22;41354;52.990;6.878;2022-08-19T11:53:42;28.60;92.10
55492;DHT22;41354;52.990;6.878;2022-08-19T11:56:09;28.60;90.40
55492;DHT22;41354;52.990;6.878;2022-08-19T11:58:35;28.70;88.70
55492;DHT22;41354;52.990;6.878;2022-08-19T12:01:04;28.50;90.90
55492;DHT22;41354;52.990;6.878;2022-08-19T12:03:30;28.70;91.10
55492;DHT22;41354;52.990;6.878;2022-08-19T12:05:56;28.80;91.20
55492;DHT22;41354;52.990;6.878;2022-08-19T12:08:22;28.80;90.10
55492;DHT22;41354;52.990;6.878;2022-08-19T12:10:47;28.60;88.00
55492;DHT22;41354;52.990;6.878;2022-08-19T12:13:14;28.40;89.20
55492;DHT22;41354;52.990;6.878;2022-08-19T12:15:45;28.00;90.40
55492;DHT22;41354;52.990;6.878;2022-08-19T12:18:12;27.80;91.80
55492;DHT22;41354;52.990;6.878;2022-08-19T12:20:42;27.60;93.50
55492;DHT22;41354;52.990;6.878;2022-08-19T12:23:09;27.60;95.90
55492;DHT22;41354;52.990;6.878;2022-08-19T12:25:35;27.60;93.90
55492;DHT22;41354;52.990;6.878;2022-08-19T12:28:02;27.80;95.50
55492;DHT22;41354;52.990;6.878;2022-08-19T12:30:28;28.30;91.30
55492;DHT22;41354;52.990;6.878;2022-08-19T12:32:53;28.80;86.50
55492;DHT22;41354;52.990;6.878;2022-08-19T12:35:19;29.40;80.90
55492;DHT22;41354;52.990;6.878;2022-08-19T12:37:46;29.90;78.90
55492;DHT22;41354;52.990;6.878;2022-08-19T12:40:12;30.50;75.90
55492;DHT22;41354;52.990;6.878;2022-08-19T12:42:39;30.80;73.20
55492;DHT22;41354;52.990;6.878;2022-08-19T12:45:08;31.20;68.90
55492;DHT22;41354;52.990;6.878;2022-08-19T12:47:34;31.80;65.90
55492;DHT22;41354;52.990;6.878;2022-08-19T12:50:00;32.50;63.10
55492;DHT22;41354;52.990;6.878;2022-08-19T12:52:26;33.00;59.80
55492;DHT22;41354;52.990;6.878;2022-08-19T12:54:54;33.40;59.70
55492;DHT22;41354;52.990;6.878;2022-08-19T12:57:21;33.50;59.40
55492;DHT22;41354;52.990;6.878;2022-08-19T12:59:47;33.40;57.10
55492;DHT22;41354;52.990;6.878;2022-08-19T13:02:16;33.10;57.50
55492;DHT22;41354;52.990;6.878;2022-08-19T13:04:42;32.70;57.30
55492;DHT22;41354;52.990;6.878;2022-08-19T13:07:08;32.00;58.20
55492;DHT22;41354;52.990;6.878;2022-08-19T13:09:34;31.50;59.10
55492;DHT22;41354;52.990;6.878;2022-08-19T13:12:00;31.00;60.30
55492;DHT22;41354;52.990;6.878;2022-08-19T13:14:29;30.40;60.70
55492;DHT22;41354;52.990;6.878;2022-08-19T13:16:57;30.00;63.50
55492;DHT22;41354;52.990;6.878;2022-08-19T13:19:22;29.80;64.30
55492;DHT22;41354;52.990;6.878;2022-08-19T13:21:50;29.70;66.70
55492;DHT22;41354;52.990;6.878;2022-08-19T13:24:16;29.50;65.60
55492;DHT22;41354;52.990;6.878;2022-08-19T13:26:42;29.40;67.00
55492;DHT22;41354;52.990;6.878;2022-08-19T13:29:07;29.40;64.60
55492;DHT22;41354;52.990;6.878;2022-08-19T13:31:51;29.20;61.10
55492;DHT22;41354;52.990;6.878;2022-08-19T13:34:36;28.90;62.60
55492;DHT22;41354;52.990;6.878;2022-08-19T13:37:03;28.90;64.80
55492;DHT22;41354;52.990;6.878;2022-08-19T13:39:33;28.90;63.30
55492;DHT22;41354;52.990;6.878;2022-08-19T13:41:59;28.90;64.60
55492;DHT22;41354;52.990;6.878;2022-08-19T13:44:25;29.00;63.70
55492;DHT22;41354;52.990;6.878;2022-08-19T13:46:51;29.10;64.00
55492;DHT22;41354;52.990;6.878;2022-08-19T13:49:19;29.40;64.50
55492;DHT22;41354;52.990;6.878;2022-08-19T13:51:46;29.70;63.70
55492;DHT22;41354;52.990;6.878;2022-08-19T13:54:12;30.00;62.50
55492;DHT22;41354;52.990;6.878;2022-08-19T13:56:45;30.30;62.30
55492;DHT22;41354;52.990;6.878;2022-08-19T13:59:11;30.40;60.10
55492;DHT22;41354;52.990;6.878;2022-08-19T14:01:37;30.20;60.90
55492;DHT22;41354;52.990;6.878;2022-08-19T14:04:04;30.10;59.50
55492;DHT22;41354;52.990;6.878;2022-08-19T14:06:31;29.80;58.50
55492;DHT22;41354;52.990;6.878;2022-08-19T14:08:57;29.50;58.80
55492;DHT22;41354;52.990;6.878;2022-08-19T14:11:22;29.50;61.40
55492;DHT22;41354;52.990;6.878;2022-08-19T14:13:49;29.60;60.40
55492;DHT22;41354;52.990;6.878;2022-08-19T14:16:15;29.60;60.80
55492;DHT22;41354;52.990;6.878;2022-08-19T14:18:41;29.70;61.90
55492;DHT22;41354;52.990;6.878;2022-08-19T14:21:08;29.70;60.70
55492;DHT22;41354;52.990;6.878;2022-08-19T14:23:38;29.80;60.30
55492;DHT22;41354;52.990;6.878;2022-08-19T14:26:07;30.10;61.30
55492;DHT22;41354;52.990;6.878;2022-08-19T14:28:32;30.80;60.50
55492;DHT22;41354;52.990;6.878;2022-08-19T14:30:58;31.40;59.20
55492;DHT22;41354;52.990;6.878;2022-08-19T14:33:24;31.10;62.90
55492;DHT22;41354;52.990;6.878;2022-08-19T14:35:49;30.50;68.30
55492;DHT22;41354;52.990;6.878;2022-08-19T14:38:17;29.80;76.50
55492;DHT22;41354;52.990;6.878;2022-08-19T14:40:43;29.30;87.60
55492;DHT22;41354;52.990;6.878;2022-08-19T14:43:10;28.60;94.90
55492;DHT22;41354;52.990;6.878;2022-08-19T14:45:38;28.10;99.90
55492;DHT22;41354;52.990;6.878;2022-08-19T14:48:08;27.70;99.90
55492;DHT22;41354;52.990;6.878;2022-08-19T14:50:34;27.40;99.90
55492;DHT22;41354;52.990;6.878;2022-08-19T14:53:04;27.20;99.90
55492;DHT22;41354;52.990;6.878;2022-08-19T14:55:31;26.90;99.90
55492;DHT22;41354;52.990;6.878;2022-08-19T14:57:57;26.60;99.90
55492;DHT22;41354;52.990;6.878;2022-08-19T15:00:24;26.50;99.90
55492;DHT22;41354;52.990;6.878;2022-08-19T15:02:50;26.40;99.90
55492;DHT22;41354;52.990;6.878;2022-08-19T15:05:16;26.30;99.90
55492;DHT22;41354;52.990;6.878;2022-08-19T15:07:43;26.30;99.90
55492;DHT22;41354;52.990;6.878;2022-08-19T15:10:10;26.30;99.90
55492;DHT22;41354;52.990;6.878;2022-08-19T15:12:37;26.20;99.90
55492;DHT22;41354;52.990;6.878;2022-08-19T15:15:07;26.10;99.90
55492;DHT22;41354;52.990;6.878;2022-08-19T15:17:33;26.00;99.90
55492;DHT22;41354;52.990;6.878;2022-08-19T15:19:58;26.00;99.90
55492;DHT22;41354;52.990;6.878;2022-08-19T15:22:24;25.90;99.90
55492;DHT22;41354;52.990;6.878;2022-08-19T15:24:49;25.90;99.90
55492;DHT22;41354;52.990;6.878;2022-08-19T15:27:15;25.80;99.90
55492;DHT22;41354;52.990;6.878;2022-08-19T15:29:41;25.60;99.90
55492;DHT22;41354;52.990;6.878;2022-08-19T15:32:07;25.60;99.90
55492;DHT22;41354;52.990;6.878;2022-08-19T15:34:33;25.50;99.90
55492;DHT22;41354;52.990;6.878;2022-08-19T15:37:00;25.40;99.90
55492;DHT22;41354;52.990;6.878;2022-08-19T15:39:26;25.30;99.90
55492;DHT22;41354;52.990;6.878;2022-08-19T15:41:52;25.30;99.90
55492;DHT22;41354;52.990;6.878;2022-08-19T15:44:19;25.30;99.90